sensor_id;sensor_type;location;lat;lon;timestamp;temperature;humidity
49236;DHT22;35067;48.134;8.378;2022-10-31T00:01:21;8.70;99.30
49236;DHT22;35067;48.134;8.378;2022-10-31T00:03:22;8.70;99.40
49236;DHT22;35067;48.134;8.378;2022-10-31T00:05:22;8.70;99.10
49236;DHT22;35067;48.134;8.378;2022-10-31T00:07:23;8.70;99.10
49236;DHT22;35067;48.134;8.378;2022-10-31T00:09:23;8.70;98.80
49236;DHT22;35067;48.134;8.378;2022-10-31T00:11:24;8.70;99.50
49236;DHT22;35067;48.134;8.378;2022-10-31T00:13:25;8.70;99.50
49236;DHT22;35067;48.134;8.378;2022-10-31T00:15:25;8.60;99.80
49236;DHT22;35067;48.134;8.378;2022-10-31T00:17:26;8.60;99.90
49236;DHT22;35067;48.134;8.378;2022-10-31T00:19:26;8.60;99.90
49236;DHT22;35067;48.134;8.378;2022-10-31T00:21:28;8.50;99.90
49236;DHT22;35067;48.134;8.378;2022-10-31T00:23:29;8.40;99.90
49236;DHT22;35067;48.134;8.378;2022-10-31T00:25:34;8.30;99.90
49236;DHT22;35067;48.134;8.378;2022-10-31T00:27:34;8.30;99.90
49236;DHT22;35067;48.134;8.378;2022-10-31T00:29:35;8.20;99.90
49236;DHT22;35067;48.134;8.378;2022-10-31T00:31:35;8.20;99.90
49236;DHT22;35067;48.134;8.378;2022-10-31T00:33:38;8.20;99.90
49236;DHT22;35067;48.134;8.378;2022-10-31T00:35:38;8.10;99.90
49236;DHT22;35067;48.134;8.378;2022-10-31T00:37:39;8.20;99.90
49236;DHT22;35067;48.134;8.378;2022-10-31T00:39:39;8.20;99.90
49236;DHT22;35067;48.134;8.378;2022-10-31T00:41:40;8.20;99.90
49236;DHT22;35067;48.134;8.378;2022-10-31T00:43:42;8.30;99.90
49236;DHT22;35067;48.134;8.378;2022-10-31T00:45:43;8.30;99.90
49236;DHT22;35067;48.134;8.378;2022-10-31T00:47:44;8.30;99.90
49236;DHT22;35067;48.134;8.378;2022-10-31T00:49:44;8.30;99.90
49236;DHT22;35067;48.134;8.378;2022-10-31T00:51:45;8.30;99.90
49236;DHT22;35067;48.134;8.378;2022-10-31T00:53:45;8.30;99.90
49236;DHT22;35067;48.134;8.378;2022-10-31T00:55:46;8.40;99.90
49236;DHT22;35067;48.134;8.378;2022-10-31T00:57:47;8.40;99.90
49236;DHT22;35067;48.134;8.378;2022-10-31T00:59:48;8.40;99.90
49236;DHT22;35067;48.134;8.378;2022-10-31T01:01:48;8.30;99.90
49236;DHT22;35067;48.134;8.378;2022-10-31T01:03:49;8.30;99.90
49236;DHT22;35067;48.134;8.378;2022-10-31T01:06:00;8.30;99.90
49236;DHT22;35067;48.134;8.378;2022-10-31T01:08:02;8.30;99.90
49236;DHT22;35067;48.134;8.378;2022-10-31T01:10:03;8.40;99.90
49236;DHT22;35067;48.134;8.378;2022-10-31T01:12:04;8.50;99.90
49236;DHT22;35067;48.134;8.378;2022-10-31T01:14:05;8.50;99.90
49236;DHT22;35067;48.134;8.378;2022-10-31T01:16:06;8.40;99.90
49236;DHT22;35067;48.134;8.378;2022-10-31T01:18:07;8.40;99.90
49236;DHT22;35067;48.134;8.378;2022-10-31T01:20:09;8.40;99.90
49236;DHT22;35067;48.134;8.378;2022-10-31T01:22:10;8.30;99.90
49236;DHT22;35067;48.134;8.378;2022-10-31T01:24:11;8.20;99.90
49236;DHT22;35067;48.134;8.378;2022-10-31T01:26:12;8.20;99.90
49236;DHT22;35067;48.134;8.378;2022-10-31T01:28:13;8.20;99.90
49236;DHT22;35067;48.134;8.378;2022-10-31T01:30:14;8.20;99.90
49236;DHT22;35067;48.134;8.378;2022-10-31T01:32:14;8.20;99.90
49236;DHT22;35067;48.134;8.378;2022-10-31T01:34:16;8.20;99.90
49236;DHT22;35067;48.134;8.378;2022-10-31T01:36:21;8.10;99.90
49236;DHT22;35067;48.134;8.378;2022-10-31T01:38:22;8.00;99.90
49236;DHT22;35067;48.134;8.378;2022-10-31T01:40:23;8.00;99.90
49236;DHT22;35067;48.134;8.378;2022-10-31T01:42:24;7.90;99.90
49236;DHT22;35067;48.134;8.378;2022-10-31T01:46:31;8.00;99.90
49236;DHT22;35067;48.134;8.378;2022-10-31T01:48:33;8.00;99.90
49236;DHT22;35067;48.134;8.378;2022-10-31T01:50:37;8.00;99.90
49236;DHT22;35067;48.134;8.378;2022-10-31T01:52:42;7.90;99.90
49236;DHT22;35067;48.134;8.378;2022-10-31T01:54:49;7.90;99.90
49236;DHT22;35067;48.134;8.378;2022-10-31T01:56:53;8.00;99.90
49236;DHT22;35067;48.134;8.378;2022-10-31T01:58:57;7.90;99.90
49236;DHT22;35067;48.134;8.378;2022-10-31T02:01:00;8.00;99.90
49236;DHT22;35067;48.134;8.378;2022-10-31T02:03:01;8.00;99.90
49236;DHT22;35067;48.134;8.378;2022-10-31T02:05:05;8.00;99.90
49236;DHT22;35067;48.134;8.378;2022-10-31T02:07:23;7.90;99.90
49236;DHT22;35067;48.134;8.378;2022-10-31T02:09:26;8.00;99.90
49236;DHT22;35067;48.134;8.378;2022-10-31T02:11:28;7.90;99.90
49236;DHT22;35067;48.134;8.378;2022-10-31T02:13:29;7.90;99.90
49236;DHT22;35067;48.134;8.378;2022-10-31T02:15:31;7.90;99.90
49236;DHT22;35067;48.134;8.378;2022-10-31T02:17:33;7.90;99.90
49236;DHT22;35067;48.134;8.378;2022-10-31T02:20:01;7.80;99.90
49236;DHT22;35067;48.134;8.378;2022-10-31T02:24:43;7.80;99.90
49236;DHT22;35067;48.134;8.378;2022-10-31T02:31:52;7.90;99.90
49236;DHT22;35067;48.134;8.378;2022-10-31T02:34:05;7.90;99.90
49236;DHT22;35067;48.134;8.378;2022-10-31T02:43:06;8.00;99.90
49236;DHT22;35067;48.134;8.378;2022-10-31T02:45:32;8.00;99.90
49236;DHT22;35067;48.134;8.378;2022-10-31T02:47:37;7.90;99.90
49236;DHT22;35067;48.134;8.378;2022-10-31T02:49:50;7.90;99.90
49236;DHT22;35067;48.134;8.378;2022-10-31T02:51:54;8.00;99.90
49236;DHT22;35067;48.134;8.378;2022-10-31T02:53:55;7.90;99.90
49236;DHT22;35067;48.134;8.378;2022-10-31T02:56:12;7.90;99.90
49236;DHT22;35067;48.134;8.378;2022-10-31T02:58:15;7.80;99.90
49236;DHT22;35067;48.134;8.378;2022-10-31T03:00:18;7.70;99.90
49236;DHT22;35067;48.134;8.378;2022-10-31T03:02:34;7.70;99.90
49236;DHT22;35067;48.134;8.378;2022-10-31T03:12:34;7.80;99.90
49236;DHT22;35067;48.134;8.378;2022-10-31T03:16:47;7.90;99.90
49236;DHT22;35067;48.134;8.378;2022-10-31T03:20:58;8.00;99.90
49236;DHT22;35067;48.134;8.378;2022-10-31T03:23:01;8.00;99.90
49236;DHT22;35067;48.134;8.378;2022-10-31T03:25:04;7.90;99.90
49236;DHT22;35067;48.134;8.378;2022-10-31T03:27:07;7.90;99.90
49236;DHT22;35067;48.134;8.378;2022-10-31T03:29:11;8.00;99.90
49236;DHT22;35067;48.134;8.378;2022-10-31T03:31:16;7.90;99.90
49236;DHT22;35067;48.134;8.378;2022-10-31T03:33:21;7.90;99.90
49236;DHT22;35067;48.134;8.378;2022-10-31T03:35:25;7.90;99.90
49236;DHT22;35067;48.134;8.378;2022-10-31T03:37:30;7.80;99.90
49236;DHT22;35067;48.134;8.378;2022-10-31T03:39:33;7.80;99.90
49236;DHT22;35067;48.134;8.378;2022-10-31T03:41:41;7.80;99.90
49236;DHT22;35067;48.134;8.378;2022-10-31T03:43:48;7.80;99.90
49236;DHT22;35067;48.134;8.378;2022-10-31T03:45:52;7.80;99.90
49236;DHT22;35067;48.134;8.378;2022-10-31T03:47:54;7.80;99.90
49236;DHT22;35067;48.134;8.378;2022-10-31T03:49:55;7.80;99.90
49236;DHT22;35067;48.134;8.378;2022-10-31T03:52:18;7.80;99.90
49236;DHT22;35067;48.134;8.378;2022-10-31T03:54:24;7.70;99.90
49236;DHT22;35067;48.134;8.378;2022-10-31T03:56:37;7.70;99.90
49236;DHT22;35067;48.134;8.378;2022-10-31T03:58:48;7.60;99.90
49236;DHT22;35067;48.134;8.378;2022-10-31T04:00:54;7.70;99.90
49236;DHT22;35067;48.134;8.378;2022-10-31T04:03:17;7.70;99.90
49236;DHT22;35067;48.134;8.378;2022-10-31T04:05:20;7.70;99.90
49236;DHT22;35067;48.134;8.378;2022-10-31T04:07:23;7.60;99.90
49236;DHT22;35067;48.134;8.378;2022-10-31T04:09:25;7.60;99.90
49236;DHT22;35067;48.134;8.378;2022-10-31T04:11:30;7.60;99.90
49236;DHT22;35067;48.134;8.378;2022-10-31T04:13:33;7.70;99.90
49236;DHT22;35067;48.134;8.378;2022-10-31T04:15:37;7.70;99.90
49236;DHT22;35067;48.134;8.378;2022-10-31T04:17:40;7.70;99.90
49236;DHT22;35067;48.134;8.378;2022-10-31T04:19:42;7.70;99.90
49236;DHT22;35067;48.134;8.378;2022-10-31T04:21:42;7.70;99.90
49236;DHT22;35067;48.134;8.378;2022-10-31T04:23:46;7.70;99.90
49236;DHT22;35067;48.134;8.378;2022-10-31T04:25:46;7.80;99.90
49236;DHT22;35067;48.134;8.378;2022-10-31T04:27:47;7.90;99.90
49236;DHT22;35067;48.134;8.378;2022-10-31T04:29:47;7.90;99.90
49236;DHT22;35067;48.134;8.378;2022-10-31T04:31:48;7.90;99.90
49236;DHT22;35067;48.134;8.378;2022-10-31T04:33:48;7.90;99.90
49236;DHT22;35067;48.134;8.378;2022-10-31T04:35:49;7.90;99.90
49236;DHT22;35067;48.134;8.378;2022-10-31T04:37:49;7.80;99.90
49236;DHT22;35067;48.134;8.378;2022-10-31T04:39:50;7.70;99.90
49236;DHT22;35067;48.134;8.378;2022-10-31T04:41:50;7.70;99.90
49236;DHT22;35067;48.134;8.378;2022-10-31T04:43:51;7.60;99.90
49236;DHT22;35067;48.134;8.378;2022-10-31T04:45:51;7.70;99.90
49236;DHT22;35067;48.134;8.378;2022-10-31T04:47:52;7.70;99.90
49236;DHT22;35067;48.134;8.378;2022-10-31T04:49:53;7.70;99.90
49236;DHT22;35067;48.134;8.378;2022-10-31T04:51:53;7.70;99.90
49236;DHT22;35067;48.134;8.378;2022-10-31T04:53:54;7.70;99.90
49236;DHT22;35067;48.134;8.378;2022-10-31T04:55:54;7.60;99.90
49236;DHT22;35067;48.134;8.378;2022-10-31T04:57:55;7.60;99.90
49236;DHT22;35067;48.134;8.378;2022-10-31T04:59:55;7.60;99.90
49236;DHT22;35067;48.134;8.378;2022-10-31T05:01:56;7.60;99.90
49236;DHT22;35067;48.134;8.378;2022-10-31T05:03:56;7.60;99.90
49236;DHT22;35067;48.134;8.378;2022-10-31T05:05:57;7.70;99.90
49236;DHT22;35067;48.134;8.378;2022-10-31T05:07:58;7.70;99.90
49236;DHT22;35067;48.134;8.378;2022-10-31T05:09:58;7.70;99.90
49236;DHT22;35067;48.134;8.378;2022-10-31T05:11:59;7.80;99.90
49236;DHT22;35067;48.134;8.378;2022-10-31T05:13:59;7.80;99.90
49236;DHT22;35067;48.134;8.378;2022-10-31T05:16:00;7.80;99.90
49236;DHT22;35067;48.134;8.378;2022-10-31T05:18:00;7.70;99.90
49236;DHT22;35067;48.134;8.378;2022-10-31T05:20:01;7.60;99.90
49236;DHT22;35067;48.134;8.378;2022-10-31T05:22:01;7.60;99.90
49236;DHT22;35067;48.134;8.378;2022-10-31T05:24:02;7.70;99.90
49236;DHT22;35067;48.134;8.378;2022-10-31T05:26:03;7.70;99.90
49236;DHT22;35067;48.134;8.378;2022-10-31T05:28:04;7.80;99.90
49236;DHT22;35067;48.134;8.378;2022-10-31T05:30:05;7.70;99.90
49236;DHT22;35067;48.134;8.378;2022-10-31T05:32:06;7.70;99.90
49236;DHT22;35067;48.134;8.378;2022-10-31T05:34:06;7.60;99.90
49236;DHT22;35067;48.134;8.378;2022-10-31T05:36:07;7.60;99.90
49236;DHT22;35067;48.134;8.378;2022-10-31T05:38:08;7.60;99.90
49236;DHT22;35067;48.134;8.378;2022-10-31T05:40:10;7.60;99.90
49236;DHT22;35067;48.134;8.378;2022-10-31T05:42:11;7.50;99.90
49236;DHT22;35067;48.134;8.378;2022-10-31T05:44:12;7.50;99.90
49236;DHT22;35067;48.134;8.378;2022-10-31T05:46:12;7.50;99.90
49236;DHT22;35067;48.134;8.378;2022-10-31T05:48:13;7.40;99.90
49236;DHT22;35067;48.134;8.378;2022-10-31T05:50:13;7.40;99.90
49236;DHT22;35067;48.134;8.378;2022-10-31T05:52:14;7.40;99.90
49236;DHT22;35067;48.134;8.378;2022-10-31T05:54:14;7.40;99.90
49236;DHT22;35067;48.134;8.378;2022-10-31T05:56:15;7.50;99.90
49236;DHT22;35067;48.134;8.378;2022-10-31T05:58:15;7.60;99.90
49236;DHT22;35067;48.134;8.378;2022-10-31T06:00:17;7.70;99.90
49236;DHT22;35067;48.134;8.378;2022-10-31T06:02:19;7.80;99.90
49236;DHT22;35067;48.134;8.378;2022-10-31T06:04:19;7.80;99.90
49236;DHT22;35067;48.134;8.378;2022-10-31T06:06:20;7.80;99.90
49236;DHT22;35067;48.134;8.378;2022-10-31T06:08:20;7.70;99.90
49236;DHT22;35067;48.134;8.378;2022-10-31T06:10:21;7.70;99.90
49236;DHT22;35067;48.134;8.378;2022-10-31T06:12:22;7.60;99.90
49236;DHT22;35067;48.134;8.378;2022-10-31T06:14:23;7.70;99.90
49236;DHT22;35067;48.134;8.378;2022-10-31T06:16:23;7.60;99.90
49236;DHT22;35067;48.134;8.378;2022-10-31T06:18:24;7.60;99.90
49236;DHT22;35067;48.134;8.378;2022-10-31T06:20:24;7.60;99.90
49236;DHT22;35067;48.134;8.378;2022-10-31T06:22:25;7.60;99.90
49236;DHT22;35067;48.134;8.378;2022-10-31T06:24:25;7.60;99.90
49236;DHT22;35067;48.134;8.378;2022-10-31T06:26:26;7.80;99.90
49236;DHT22;35067;48.134;8.378;2022-10-31T06:28:26;7.90;99.90
49236;DHT22;35067;48.134;8.378;2022-10-31T06:30:27;8.00;99.90
49236;DHT22;35067;48.134;8.378;2022-10-31T06:32:28;7.90;99.90
49236;DHT22;35067;48.134;8.378;2022-10-31T06:34:28;7.80;99.90
49236;DHT22;35067;48.134;8.378;2022-10-31T06:36:29;7.80;99.90
49236;DHT22;35067;48.134;8.378;2022-10-31T06:38:29;7.80;99.90
49236;DHT22;35067;48.134;8.378;2022-10-31T06:40:30;7.80;99.90
49236;DHT22;35067;48.134;8.378;2022-10-31T06:42:30;7.90;99.90
49236;DHT22;35067;48.134;8.378;2022-10-31T06:44:31;7.90;99.90
49236;DHT22;35067;48.134;8.378;2022-10-31T06:46:31;8.00;99.90
49236;DHT22;35067;48.134;8.378;2022-10-31T06:48:32;8.00;99.90
49236;DHT22;35067;48.134;8.378;2022-10-31T06:50:33;8.00;99.90
49236;DHT22;35067;48.134;8.378;2022-10-31T06:52:33;8.00;99.90
49236;DHT22;35067;48.134;8.378;2022-10-31T06:54:34;8.00;99.90
49236;DHT22;35067;48.134;8.378;2022-10-31T06:56:34;8.00;99.90
49236;DHT22;35067;48.134;8.378;2022-10-31T06:58:35;8.10;99.90
49236;DHT22;35067;48.134;8.378;2022-10-31T07:00:36;8.10;99.90
49236;DHT22;35067;48.134;8.378;2022-10-31T07:02:36;8.20;99.90
49236;DHT22;35067;48.134;8.378;2022-10-31T07:04:37;8.20;99.90
49236;DHT22;35067;48.134;8.378;2022-10-31T07:06:38;8.40;99.90
49236;DHT22;35067;48.134;8.378;2022-10-31T07:08:39;8.50;99.90
49236;DHT22;35067;48.134;8.378;2022-10-31T07:10:40;8.50;99.90
49236;DHT22;35067;48.134;8.378;2022-10-31T07:12:41;8.60;99.90
49236;DHT22;35067;48.134;8.378;2022-10-31T07:14:42;8.70;99.90
49236;DHT22;35067;48.134;8.378;2022-10-31T07:16:42;8.80;99.90
49236;DHT22;35067;48.134;8.378;2022-10-31T07:18:43;8.90;99.90
49236;DHT22;35067;48.134;8.378;2022-10-31T07:20:43;9.00;99.90
49236;DHT22;35067;48.134;8.378;2022-10-31T07:22:44;9.10;99.90
49236;DHT22;35067;48.134;8.378;2022-10-31T07:24:44;9.10;99.90
49236;DHT22;35067;48.134;8.378;2022-10-31T07:26:45;9.20;99.90
49236;DHT22;35067;48.134;8.378;2022-10-31T07:28:47;9.30;99.90
49236;DHT22;35067;48.134;8.378;2022-10-31T07:30:52;9.40;99.90
49236;DHT22;35067;48.134;8.378;2022-10-31T07:32:53;9.60;99.90
49236;DHT22;35067;48.134;8.378;2022-10-31T07:34:54;9.60;99.90
49236;DHT22;35067;48.134;8.378;2022-10-31T07:36:54;9.70;99.90
49236;DHT22;35067;48.134;8.378;2022-10-31T07:38:55;9.80;99.90
49236;DHT22;35067;48.134;8.378;2022-10-31T07:40:55;9.90;99.90
49236;DHT22;35067;48.134;8.378;2022-10-31T07:42:57;9.90;99.90
49236;DHT22;35067;48.134;8.378;2022-10-31T07:44:58;9.90;99.90
49236;DHT22;35067;48.134;8.378;2022-10-31T07:46:58;10.00;99.90
49236;DHT22;35067;48.134;8.378;2022-10-31T07:49:02;10.20;99.90
49236;DHT22;35067;48.134;8.378;2022-10-31T07:51:02;10.30;99.90
49236;DHT22;35067;48.134;8.378;2022-10-31T07:53:08;10.50;99.90
49236;DHT22;35067;48.134;8.378;2022-10-31T07:55:09;10.70;99.90
49236;DHT22;35067;48.134;8.378;2022-10-31T07:57:10;10.80;99.50
49236;DHT22;35067;48.134;8.378;2022-10-31T07:59:10;11.00;98.80
49236;DHT22;35067;48.134;8.378;2022-10-31T08:01:11;11.00;97.60
49236;DHT22;35067;48.134;8.378;2022-10-31T08:03:14;11.20;98.20
49236;DHT22;35067;48.134;8.378;2022-10-31T08:05:15;11.40;97.70
49236;DHT22;35067;48.134;8.378;2022-10-31T08:07:16;11.60;97.40
49236;DHT22;35067;48.134;8.378;2022-10-31T08:09:17;11.80;96.50
49236;DHT22;35067;48.134;8.378;2022-10-31T08:11:18;12.10;96.30
49236;DHT22;35067;48.134;8.378;2022-10-31T08:13:18;12.20;95.80
49236;DHT22;35067;48.134;8.378;2022-10-31T08:15:19;12.40;94.70
49236;DHT22;35067;48.134;8.378;2022-10-31T08:17:19;12.60;94.60
49236;DHT22;35067;48.134;8.378;2022-10-31T08:19:20;12.70;94.20
49236;DHT22;35067;48.134;8.378;2022-10-31T08:21:21;12.70;92.60
49236;DHT22;35067;48.134;8.378;2022-10-31T08:23:21;13.00;92.10
49236;DHT22;35067;48.134;8.378;2022-10-31T08:25:22;13.20;91.60
49236;DHT22;35067;48.134;8.378;2022-10-31T08:27:23;13.40;91.90
49236;DHT22;35067;48.134;8.378;2022-10-31T08:29:23;13.60;91.50
49236;DHT22;35067;48.134;8.378;2022-10-31T08:31:24;13.70;91.30
49236;DHT22;35067;48.134;8.378;2022-10-31T08:33:26;14.10;90.80
49236;DHT22;35067;48.134;8.378;2022-10-31T08:35:27;14.50;90.50
49236;DHT22;35067;48.134;8.378;2022-10-31T08:37:28;14.80;88.80
49236;DHT22;35067;48.134;8.378;2022-10-31T08:39:28;14.90;88.50
49236;DHT22;35067;48.134;8.378;2022-10-31T08:41:30;15.00;86.20
49236;DHT22;35067;48.134;8.378;2022-10-31T08:43:30;15.10;86.80
49236;DHT22;35067;48.134;8.378;2022-10-31T08:45:32;15.30;88.20
49236;DHT22;35067;48.134;8.378;2022-10-31T08:47:33;15.50;87.80
49236;DHT22;35067;48.134;8.378;2022-10-31T08:49:34;15.50;88.20
49236;DHT22;35067;48.134;8.378;2022-10-31T08:51:35;15.80;86.40
49236;DHT22;35067;48.134;8.378;2022-10-31T08:53:35;16.00;87.40
49236;DHT22;35067;48.134;8.378;2022-10-31T08:55:37;16.30;84.00
49236;DHT22;35067;48.134;8.378;2022-10-31T08:57:38;16.40;83.00
49236;DHT22;35067;48.134;8.378;2022-10-31T08:59:39;16.30;81.10
49236;DHT22;35067;48.134;8.378;2022-10-31T09:01:40;16.30;84.20
49236;DHT22;35067;48.134;8.378;2022-10-31T09:03:41;16.50;81.60
49236;DHT22;35067;48.134;8.378;2022-10-31T09:05:42;16.70;80.30
49236;DHT22;35067;48.134;8.378;2022-10-31T09:07:43;17.00;78.50
49236;DHT22;35067;48.134;8.378;2022-10-31T09:09:43;17.00;81.70
49236;DHT22;35067;48.134;8.378;2022-10-31T09:11:44;17.40;78.50
49236;DHT22;35067;48.134;8.378;2022-10-31T09:13:44;17.30;76.70
49236;DHT22;35067;48.134;8.378;2022-10-31T09:15:47;17.60;72.80
49236;DHT22;35067;48.134;8.378;2022-10-31T09:17:49;17.80;75.10
49236;DHT22;35067;48.134;8.378;2022-10-31T09:19:49;18.10;73.40
49236;DHT22;35067;48.134;8.378;2022-10-31T09:21:53;18.70;72.40
49236;DHT22;35067;48.134;8.378;2022-10-31T09:23:54;19.10;69.50
49236;DHT22;35067;48.134;8.378;2022-10-31T09:25:55;19.30;66.50
49236;DHT22;35067;48.134;8.378;2022-10-31T09:27:57;19.40;66.00
49236;DHT22;35067;48.134;8.378;2022-10-31T09:29:59;19.20;65.20
49236;DHT22;35067;48.134;8.378;2022-10-31T09:31:59;19.20;63.40
49236;DHT22;35067;48.134;8.378;2022-10-31T09:34:00;19.50;64.30
49236;DHT22;35067;48.134;8.378;2022-10-31T09:36:01;19.50;64.80
49236;DHT22;35067;48.134;8.378;2022-10-31T09:38:04;19.90;63.90
49236;DHT22;35067;48.134;8.378;2022-10-31T09:40:07;19.70;65.00
49236;DHT22;35067;48.134;8.378;2022-10-31T09:45:47;20.10;64.50
49236;DHT22;35067;48.134;8.378;2022-10-31T09:50:10;20.90;61.20
49236;DHT22;35067;48.134;8.378;2022-10-31T09:52:21;20.90;62.30
49236;DHT22;35067;48.134;8.378;2022-10-31T09:55:02;21.40;60.20
49236;DHT22;35067;48.134;8.378;2022-10-31T09:57:12;21.30;59.30
49236;DHT22;35067;48.134;8.378;2022-10-31T09:59:31;21.40;56.90
49236;DHT22;35067;48.134;8.378;2022-10-31T10:01:51;21.60;55.80
49236;DHT22;35067;48.134;8.378;2022-10-31T10:04:01;21.40;55.50
49236;DHT22;35067;48.134;8.378;2022-10-31T10:06:24;21.50;55.00
49236;DHT22;35067;48.134;8.378;2022-10-31T10:08:32;21.60;55.90
49236;DHT22;35067;48.134;8.378;2022-10-31T10:10:50;21.60;55.30
49236;DHT22;35067;48.134;8.378;2022-10-31T10:21:16;21.70;58.70
49236;DHT22;35067;48.134;8.378;2022-10-31T10:23:32;21.80;58.60
49236;DHT22;35067;48.134;8.378;2022-10-31T10:25:40;22.10;57.30
49236;DHT22;35067;48.134;8.378;2022-10-31T10:35:08;21.80;53.80
49236;DHT22;35067;48.134;8.378;2022-10-31T10:37:36;21.30;52.60
49236;DHT22;35067;48.134;8.378;2022-10-31T10:39:42;21.90;52.00
49236;DHT22;35067;48.134;8.378;2022-10-31T10:41:48;21.40;58.40
49236;DHT22;35067;48.134;8.378;2022-10-31T10:44:11;21.50;56.90
49236;DHT22;35067;48.134;8.378;2022-10-31T10:53:44;22.10;53.30
49236;DHT22;35067;48.134;8.378;2022-10-31T10:56:11;22.10;54.80
49236;DHT22;35067;48.134;8.378;2022-10-31T10:58:16;22.00;55.50
49236;DHT22;35067;48.134;8.378;2022-10-31T11:00:25;22.00;56.30
49236;DHT22;35067;48.134;8.378;2022-10-31T11:02:36;22.00;56.00
49236;DHT22;35067;48.134;8.378;2022-10-31T11:04:39;22.10;55.70
49236;DHT22;35067;48.134;8.378;2022-10-31T11:06:41;21.90;57.00
49236;DHT22;35067;48.134;8.378;2022-10-31T11:08:41;21.60;58.00
49236;DHT22;35067;48.134;8.378;2022-10-31T11:10:42;21.20;57.70
49236;DHT22;35067;48.134;8.378;2022-10-31T11:12:56;20.70;61.20
49236;DHT22;35067;48.134;8.378;2022-10-31T11:15:20;20.40;61.80
49236;DHT22;35067;48.134;8.378;2022-10-31T11:17:32;20.60;61.90
49236;DHT22;35067;48.134;8.378;2022-10-31T11:19:34;20.60;61.50
49236;DHT22;35067;48.134;8.378;2022-10-31T11:21:35;20.50;62.70
49236;DHT22;35067;48.134;8.378;2022-10-31T11:23:35;20.50;63.40
49236;DHT22;35067;48.134;8.378;2022-10-31T11:25:36;20.30;63.60
49236;DHT22;35067;48.134;8.378;2022-10-31T11:27:37;20.10;61.00
49236;DHT22;35067;48.134;8.378;2022-10-31T11:29:37;19.70;61.80
49236;DHT22;35067;48.134;8.378;2022-10-31T11:31:38;19.30;63.00
49236;DHT22;35067;48.134;8.378;2022-10-31T11:33:47;19.10;67.60
49236;DHT22;35067;48.134;8.378;2022-10-31T11:35:50;19.10;70.10
49236;DHT22;35067;48.134;8.378;2022-10-31T11:37:56;19.20;68.90
49236;DHT22;35067;48.134;8.378;2022-10-31T11:40:00;19.20;71.70
49236;DHT22;35067;48.134;8.378;2022-10-31T11:42:03;19.30;69.80
49236;DHT22;35067;48.134;8.378;2022-10-31T11:44:22;19.20;69.50
49236;DHT22;35067;48.134;8.378;2022-10-31T11:46:34;19.20;69.60
49236;DHT22;35067;48.134;8.378;2022-10-31T11:48:36;19.50;65.80
49236;DHT22;35067;48.134;8.378;2022-10-31T11:50:40;19.50;64.70
49236;DHT22;35067;48.134;8.378;2022-10-31T11:52:41;19.70;62.70
49236;DHT22;35067;48.134;8.378;2022-10-31T11:54:47;19.70;60.20
49236;DHT22;35067;48.134;8.378;2022-10-31T11:56:55;20.10;57.80
49236;DHT22;35067;48.134;8.378;2022-10-31T11:59:05;20.30;56.60
49236;DHT22;35067;48.134;8.378;2022-10-31T12:01:24;21.10;56.10
49236;DHT22;35067;48.134;8.378;2022-10-31T12:03:43;22.20;52.90
49236;DHT22;35067;48.134;8.378;2022-10-31T12:06:16;23.30;48.60
49236;DHT22;35067;48.134;8.378;2022-10-31T12:08:21;22.90;48.40
49236;DHT22;35067;48.134;8.378;2022-10-31T12:10:24;22.70;49.90
49236;DHT22;35067;48.134;8.378;2022-10-31T12:12:41;22.40;55.60
49236;DHT22;35067;48.134;8.378;2022-10-31T12:16:54;23.10;50.90
49236;DHT22;35067;48.134;8.378;2022-10-31T12:21:40;23.00;53.60
49236;DHT22;35067;48.134;8.378;2022-10-31T12:23:57;22.90;49.80
49236;DHT22;35067;48.134;8.378;2022-10-31T12:26:27;22.60;53.00
49236;DHT22;35067;48.134;8.378;2022-10-31T12:29:19;23.60;49.50
49236;DHT22;35067;48.134;8.378;2022-10-31T12:31:53;23.50;47.80
49236;DHT22;35067;48.134;8.378;2022-10-31T12:36:41;25.80;42.90
49236;DHT22;35067;48.134;8.378;2022-10-31T12:41:51;27.10;38.80
49236;DHT22;35067;48.134;8.378;2022-10-31T12:52:06;30.70;31.30
49236;DHT22;35067;48.134;8.378;2022-10-31T12:54:28;31.00;30.10
49236;DHT22;35067;48.134;8.378;2022-10-31T12:58:56;30.60;31.00
49236;DHT22;35067;48.134;8.378;2022-10-31T13:01:24;30.20;30.60
49236;DHT22;35067;48.134;8.378;2022-10-31T13:03:52;30.70;30.20
49236;DHT22;35067;48.134;8.378;2022-10-31T13:06:05;31.30;29.40
49236;DHT22;35067;48.134;8.378;2022-10-31T13:08:27;29.90;30.40
49236;DHT22;35067;48.134;8.378;2022-10-31T13:12:35;30.00;29.90
49236;DHT22;35067;48.134;8.378;2022-10-31T13:14:40;29.50;30.80
49236;DHT22;35067;48.134;8.378;2022-10-31T13:16:45;29.40;30.50
49236;DHT22;35067;48.134;8.378;2022-10-31T13:18:56;29.90;30.20
49236;DHT22;35067;48.134;8.378;2022-10-31T13:21:03;29.30;30.60
49236;DHT22;35067;48.134;8.378;2022-10-31T13:25:30;29.90;30.70
49236;DHT22;35067;48.134;8.378;2022-10-31T13:27:47;30.50;30.40
49236;DHT22;35067;48.134;8.378;2022-10-31T13:30:18;31.00;28.20
49236;DHT22;35067;48.134;8.378;2022-10-31T13:32:21;32.00;28.00
49236;DHT22;35067;48.134;8.378;2022-10-31T13:34:34;31.80;27.00
49236;DHT22;35067;48.134;8.378;2022-10-31T13:37:01;30.80;28.30
49236;DHT22;35067;48.134;8.378;2022-10-31T13:39:19;30.00;29.70
49236;DHT22;35067;48.134;8.378;2022-10-31T13:41:59;30.80;28.20
49236;DHT22;35067;48.134;8.378;2022-10-31T13:44:15;30.00;28.90
49236;DHT22;35067;48.134;8.378;2022-10-31T13:48:37;31.10;27.20
49236;DHT22;35067;48.134;8.378;2022-10-31T13:50:41;31.70;26.30
49236;DHT22;35067;48.134;8.378;2022-10-31T13:52:42;31.80;25.60
49236;DHT22;35067;48.134;8.378;2022-10-31T13:54:48;31.30;25.80
49236;DHT22;35067;48.134;8.378;2022-10-31T13:56:55;29.30;29.30
49236;DHT22;35067;48.134;8.378;2022-10-31T13:59:00;27.00;35.20
49236;DHT22;35067;48.134;8.378;2022-10-31T14:01:24;26.30;36.70
49236;DHT22;35067;48.134;8.378;2022-10-31T14:03:25;26.40;36.70
49236;DHT22;35067;48.134;8.378;2022-10-31T14:07:32;26.70;36.60
49236;DHT22;35067;48.134;8.378;2022-10-31T14:09:34;26.50;38.10
49236;DHT22;35067;48.134;8.378;2022-10-31T14:11:36;27.00;37.20
49236;DHT22;35067;48.134;8.378;2022-10-31T14:13:45;27.50;34.60
49236;DHT22;35067;48.134;8.378;2022-10-31T14:18:02;27.90;35.70
49236;DHT22;35067;48.134;8.378;2022-10-31T14:22:23;29.40;32.40
49236;DHT22;35067;48.134;8.378;2022-10-31T14:28:35;30.40;29.60
49236;DHT22;35067;48.134;8.378;2022-10-31T14:30:36;30.10;30.00
49236;DHT22;35067;48.134;8.378;2022-10-31T14:32:36;30.40;29.80
49236;DHT22;35067;48.134;8.378;2022-10-31T14:39:55;30.90;29.70
49236;DHT22;35067;48.134;8.378;2022-10-31T14:44:49;28.70;33.30
49236;DHT22;35067;48.134;8.378;2022-10-31T14:51:47;28.30;33.60
49236;DHT22;35067;48.134;8.378;2022-10-31T14:53:56;28.90;33.30
49236;DHT22;35067;48.134;8.378;2022-10-31T14:55:58;29.00;31.30
49236;DHT22;35067;48.134;8.378;2022-10-31T14:58:04;28.50;32.70
49236;DHT22;35067;48.134;8.378;2022-10-31T15:00:08;27.20;34.20
49236;DHT22;35067;48.134;8.378;2022-10-31T15:02:32;25.80;38.00
49236;DHT22;35067;48.134;8.378;2022-10-31T15:04:38;24.80;39.70